Time;durP1;ratioP1;P1;durP2;ratioP2;P2;SDS_P1;SDS_P2;PMS_P1;PMS_P2;Temp;Humidity;BMP_temperature;BMP_pressure;BME280_temperature;BME280_humidity;BME280_pressure;Samples;Min_cycle;Max_cycle;Signal;HPM_P1;HPM_P2
2023/04/28 00:00:57;;;;;;;3.63;3.10;;;;;;;;;;5044146;28;20045;-64
2023/04/28 00:03:23;;;;;;;4.10;2.90;;;;;;;;;;5043897;28;20044;-64
2023/04/28 00:05:49;;;;;;;3.13;2.85;;;;;;;;;;5043816;28;20063;-64
2023/04/28 00:08:15;;;;;;;3.75;3.35;;;;;;;;;;5024449;28;20049;-64
2023/04/28 00:10:41;;;;;;;3.85;3.33;;;;;;;;;;5044425;28;20052;-64
2023/04/28 00:13:07;;;;;;;5.80;3.30;;;;;;;;;;5042459;28;20045;-64
2023/04/28 00:15:33;;;;;;;4.57;4.03;;;;;;;;;;5036555;28;20049;-64
2023/04/28 00:17:59;;;;;;;5.75;4.32;;;;;;;;;;5026300;28;20063;-64
2023/04/28 00:20:25;;;;;;;3.53;3.22;;;;;;;;;;5025479;28;20517;-65
2023/04/28 00:22:51;;;;;;;4.60;3.70;;;;;;;;;;5025964;28;20048;-64
2023/04/28 00:25:17;;;;;;;3.63;3.30;;;;;;;;;;5026260;28;20380;-64
2023/04/28 00:27:43;;;;;;;4.10;3.70;;;;;;;;;;5043890;28;20116;-64
2023/04/28 00:30:09;;;;;;;6.75;4.00;;;;;;;;;;5025605;28;20049;-64
2023/04/28 00:32:35;;;;;;;3.42;3.13;;;;;;;;;;5026098;28;20049;-64
2023/04/28 00:35:02;;;;;;;3.60;3.25;;;;;;;;;;5025438;28;20045;-64
2023/04/28 00:37:27;;;;;;;5.38;3.65;;;;;;;;;;5025955;28;20056;-64
2023/04/28 00:39:54;;;;;;;3.95;3.55;;;;;;;;;;5043928;28;20616;-64
2023/04/28 00:42:20;;;;;;;4.20;3.80;;;;;;;;;;5043152;28;20076;-64
2023/04/28 00:44:46;;;;;;;5.90;3.53;;;;;;;;;;5044061;28;20088;-64
2023/04/28 00:47:12;;;;;;;4.90;4.50;;;;;;;;;;5043338;28;20052;-64
2023/04/28 00:49:39;;;;;;;4.75;4.05;;;;;;;;;;5029547;28;20045;-64
2023/04/28 00:52:06;;;;;;;3.85;3.53;;;;;;;;;;5047225;28;20107;-64
2023/04/28 00:54:33;;;;;;;4.53;3.65;;;;;;;;;;5028820;28;20048;-64
2023/04/28 00:57:01;;;;;;;5.45;3.90;;;;;;;;;;5047360;28;20131;-64
2023/04/28 00:59:27;;;;;;;4.57;3.60;;;;;;;;;;5047172;28;20790;-64
2023/04/28 01:01:53;;;;;;;4.22;3.67;;;;;;;;;;5046351;28;20049;-64
2023/04/28 01:04:20;;;;;;;3.90;3.42;;;;;;;;;;5047426;28;20063;-65
2023/04/28 01:06:47;;;;;;;3.67;3.20;;;;;;;;;;5023008;28;20091;-64
2023/04/28 01:09:13;;;;;;;3.80;3.35;;;;;;;;;;5046617;28;20502;-64
2023/04/28 01:11:39;;;;;;;3.38;2.80;;;;;;;;;;5029578;28;20045;-64
2023/04/28 01:14:05;;;;;;;3.35;3.05;;;;;;;;;;5029085;28;20547;-65
2023/04/28 01:16:34;;;;;;;4.10;3.70;;;;;;;;;;5046651;28;20129;-64
2023/04/28 01:19:00;;;;;;;4.10;3.70;;;;;;;;;;5046876;28;20525;-64
2023/04/28 01:21:33;;;;;;;3.70;3.25;;;;;;;;;;5047009;28;20056;-64
2023/04/28 01:24:00;;;;;;;3.60;3.28;;;;;;;;;;5046250;28;20041;-64
2023/04/28 01:26:26;;;;;;;4.53;3.60;;;;;;;;;;5045888;28;20049;-64
2023/04/28 01:28:52;;;;;;;4.53;3.75;;;;;;;;;;5046446;28;20048;-64
2023/04/28 01:31:18;;;;;;;4.50;3.65;;;;;;;;;;5046067;28;20053;-64
2023/04/28 01:33:44;;;;;;;3.88;3.47;;;;;;;;;;5047141;28;20530;-64
2023/04/28 01:36:10;;;;;;;6.57;3.95;;;;;;;;;;5028765;28;20500;-64
2023/04/28 01:38:36;;;;;;;5.70;4.15;;;;;;;;;;5023037;28;20051;-65
2023/04/28 01:41:02;;;;;;;4.95;4.53;;;;;;;;;;5046752;28;20044;-64
2023/04/28 01:43:28;;;;;;;4.45;3.85;;;;;;;;;;5045732;28;20085;-64
2023/04/28 01:45:55;;;;;;;5.78;4.18;;;;;;;;;;5028321;28;20065;-64
2023/04/28 01:48:21;;;;;;;5.20;4.45;;;;;;;;;;5046136;28;20561;-64
2023/04/28 01:50:47;;;;;;;4.40;4.00;;;;;;;;;;5028110;28;20045;-64
2023/04/28 01:53:13;;;;;;;3.90;3.55;;;;;;;;;;5028896;28;20060;-64
2023/04/28 01:55:39;;;;;;;6.15;4.25;;;;;;;;;;5028712;28;20052;-64
2023/04/28 01:58:06;;;;;;;3.67;3.38;;;;;;;;;;5027716;28;20543;-64
2023/04/28 02:00:32;;;;;;;4.88;3.72;;;;;;;;;;5044978;28;20067;-64
2023/04/28 02:02:58;;;;;;;5.13;4.07;;;;;;;;;;5046224;28;20100;-64
2023/04/28 02:05:24;;;;;;;6.43;5.15;;;;;;;;;;5045506;28;20076;-64
2023/04/28 02:07:50;;;;;;;5.53;5.03;;;;;;;;;;5046200;28;20048;-65
2023/04/28 02:10:16;;;;;;;4.43;4.03;;;;;;;;;;5046431;28;20040;-64
2023/04/28 02:12:42;;;;;;;5.47;4.45;;;;;;;;;;5045652;28;20553;-64
2023/04/28 02:15:08;;;;;;;4.28;3.90;;;;;;;;;;5046021;28;20044;-64
2023/04/28 02:17:34;;;;;;;5.90;4.75;;;;;;;;;;5028023;28;20048;-64
2023/04/28 02:20:00;;;;;;;4.40;3.88;;;;;;;;;;5045263;28;20045;-64
2023/04/28 02:22:26;;;;;;;4.03;3.63;;;;;;;;;;5045478;28;20121;-64
2023/04/28 02:24:52;;;;;;;4.47;4.07;;;;;;;;;;5045997;28;20044;-64
2023/04/28 02:27:18;;;;;;;3.70;3.40;;;;;;;;;;5045405;28;20107;-64
2023/04/28 02:29:44;;;;;;;5.50;4.78;;;;;;;;;;5046010;28;20059;-64
2023/04/28 02:32:10;;;;;;;10.75;5.93;;;;;;;;;;5045560;28;20045;-64
2023/04/28 02:34:36;;;;;;;4.88;4.45;;;;;;;;;;5027047;28;20045;-64
2023/04/28 02:37:02;;;;;;;6.65;5.82;;;;;;;;;;5045651;28;20041;-64
2023/04/28 02:39:29;;;;;;;6.32;4.85;;;;;;;;;;5027632;28;20084;-64
2023/04/28 02:41:56;;;;;;;6.70;5.95;;;;;;;;;;5044748;28;20221;-64
2023/04/28 02:44:22;;;;;;;9.20;6.75;;;;;;;;;;5027305;28;20083;-66
2023/04/28 02:46:49;;;;;;;7.63;6.60;;;;;;;;;;5026827;28;20128;-64
2023/04/28 02:49:15;;;;;;;5.95;5.28;;;;;;;;;;5045348;28;20102;-63
2023/04/28 02:51:41;;;;;;;7.63;6.25;;;;;;;;;;5045329;28;20119;-64
2023/04/28 02:54:07;;;;;;;6.63;5.90;;;;;;;;;;5044291;28;20562;-64
2023/04/28 02:56:33;;;;;;;7.75;6.63;;;;;;;;;;5053137;28;20056;-64
2023/04/28 02:58:59;;;;;;;7.00;6.22;;;;;;;;;;5026709;28;20095;-64
2023/04/28 03:01:25;;;;;;;7.95;6.03;;;;;;;;;;5026001;28;20484;-64
2023/04/28 03:03:51;;;;;;;7.20;5.90;;;;;;;;;;5044804;28;20033;-64
2023/04/28 03:06:17;;;;;;;6.35;5.57;;;;;;;;;;5027113;28;20056;-63
2023/04/28 03:08:43;;;;;;;8.10;5.55;;;;;;;;;;5044730;28;20052;-63
2023/04/28 03:11:10;;;;;;;6.60;5.70;;;;;;;;;;5044371;28;20087;-64
2023/04/28 03:13:36;;;;;;;7.10;6.38;;;;;;;;;;5044586;28;20570;-64
2023/04/28 03:16:02;;;;;;;9.32;7.03;;;;;;;;;;5044228;28;20052;-64
2023/04/28 03:18:28;;;;;;;7.85;7.05;;;;;;;;;;5026524;28;20041;-64
2023/04/28 03:20:54;;;;;;;11.57;7.68;;;;;;;;;;5044723;28;20049;-64
2023/04/28 03:23:20;;;;;;;9.10;7.60;;;;;;;;;;5044099;28;20055;-64
2023/04/28 03:25:46;;;;;;;9.75;8.07;;;;;;;;;;5027122;28;20045;-64
2023/04/28 03:28:12;;;;;;;10.55;7.75;;;;;;;;;;5044702;28;20573;-64
2023/04/28 03:30:38;;;;;;;10.45;8.07;;;;;;;;;;5018405;28;20131;-64
2023/04/28 03:33:04;;;;;;;11.55;7.30;;;;;;;;;;5026406;28;20079;-64
2023/04/28 03:35:30;;;;;;;8.15;6.40;;;;;;;;;;5026528;28;20496;-64
2023/04/28 03:37:56;;;;;;;6.60;5.90;;;;;;;;;;5044016;28;20131;-64
2023/04/28 03:40:22;;;;;;;6.75;5.75;;;;;;;;;;5044468;28;20037;-64
2023/04/28 03:42:48;;;;;;;10.30;7.63;;;;;;;;;;5026773;28;20758;-64
2023/04/28 03:45:15;;;;;;;6.43;5.82;;;;;;;;;;5044063;28;20057;-64
2023/04/28 03:47:41;;;;;;;7.72;6.82;;;;;;;;;;5045047;28;20052;-64
2023/04/28 03:50:07;;;;;;;6.22;5.47;;;;;;;;;;5025694;28;20037;-63
2023/04/28 03:52:33;;;;;;;6.95;6.25;;;;;;;;;;5026509;28;20053;-64
2023/04/28 03:54:59;;;;;;;8.82;7.15;;;;;;;;;;5044430;28;20090;-64
2023/04/28 03:57:25;;;;;;;7.35;6.65;;;;;;;;;;5025552;28;20473;-63
2023/04/28 03:59:51;;;;;;;6.65;5.82;;;;;;;;;;5026156;28;20045;-64
2023/04/28 04:02:17;;;;;;;9.07;6.90;;;;;;;;;;5044453;28;20380;-63
2023/04/28 04:04:44;;;;;;;7.75;6.13;;;;;;;;;;5043680;28;20056;-64
2023/04/28 04:07:10;;;;;;;10.20;7.80;;;;;;;;;;5026305;28;20080;-64
2023/04/28 04:09:36;;;;;;;12.98;8.88;;;;;;;;;;5026176;28;20056;-64
2023/04/28 04:12:02;;;;;;;9.18;8.07;;;;;;;;;;5025282;28;20551;-63
2023/04/28 04:14:28;;;;;;;10.45;8.32;;;;;;;;;;5044162;28;20097;-63
2023/04/28 04:16:54;;;;;;;13.80;10.63;;;;;;;;;;5044160;28;20393;-63
2023/04/28 04:19:22;;;;;;;11.25;9.55;;;;;;;;;;5043362;28;20100;-64
2023/04/28 04:21:48;;;;;;;11.77;8.98;;;;;;;;;;5044218;28;20041;-64
2023/04/28 04:24:14;;;;;;;12.45;9.82;;;;;;;;;;5029545;28;20080;-63
2023/04/28 04:26:40;;;;;;;14.20;9.75;;;;;;;;;;5029768;28;20104;-64
2023/04/28 04:29:06;;;;;;;11.50;9.35;;;;;;;;;;5047724;28;20059;-64
2023/04/28 04:31:32;;;;;;;12.35;9.32;;;;;;;;;;5029945;28;21696;-63
2023/04/28 04:33:58;;;;;;;11.27;8.85;;;;;;;;;;5047319;28;20139;-64
2023/04/28 04:36:25;;;;;;;9.32;7.85;;;;;;;;;;5047739;28;20048;-64
2023/04/28 04:38:51;;;;;;;12.00;9.60;;;;;;;;;;5030021;28;20063;-63
2023/04/28 04:41:19;;;;;;;16.77;11.27;;;;;;;;;;5047174;28;20403;-64
2023/04/28 04:43:45;;;;;;;10.32;9.15;;;;;;;;;;5048007;28;20044;-63
2023/04/28 04:46:11;;;;;;;14.63;9.25;;;;;;;;;;5047298;28;20053;-63
2023/04/28 04:48:38;;;;;;;10.43;9.18;;;;;;;;;;5047438;28;20128;-64
2023/04/28 04:51:04;;;;;;;9.00;7.68;;;;;;;;;;5029313;28;20049;-64
2023/04/28 04:53:30;;;;;;;10.93;8.18;;;;;;;;;;5028648;28;20061;-64
2023/04/28 04:55:56;;;;;;;10.95;9.63;;;;;;;;;;5047154;28;20045;-63
2023/04/28 04:58:22;;;;;;;10.95;8.95;;;;;;;;;;5029431;28;20065;-63
2023/04/28 05:00:48;;;;;;;9.73;8.70;;;;;;;;;;5047019;28;20055;-64
2023/04/28 05:03:14;;;;;;;9.32;7.72;;;;;;;;;;5047510;28;20795;-64
2023/04/28 05:05:40;;;;;;;10.52;8.27;;;;;;;;;;5029662;28;20198;-64
2023/04/28 05:08:06;;;;;;;10.60;8.25;;;;;;;;;;5046667;28;20107;-64
2023/04/28 05:10:32;;;;;;;12.82;10.02;;;;;;;;;;5047012;28;20608;-64
2023/04/28 05:12:58;;;;;;;12.27;9.48;;;;;;;;;;5029026;28;20060;-64
2023/04/28 05:15:24;;;;;;;11.52;8.57;;;;;;;;;;5045252;28;20419;-64
2023/04/28 05:17:50;;;;;;;12.27;9.30;;;;;;;;;;5047137;28;20403;-64
2023/04/28 05:20:16;;;;;;;12.02;8.10;;;;;;;;;;5047037;28;20051;-64
2023/04/28 05:22:42;;;;;;;12.02;8.90;;;;;;;;;;5046709;28;20093;-64
2023/04/28 05:25:08;;;;;;;12.20;8.73;;;;;;;;;;5046724;28;20131;-65
2023/04/28 05:27:38;;;;;;;10.75;8.30;;;;;;;;;;5028842;28;20068;-64
2023/04/28 05:30:04;;;;;;;10.95;8.48;;;;;;;;;;5019756;28;20048;-64
2023/04/28 05:32:30;;;;;;;10.95;8.07;;;;;;;;;;5046858;28;20049;-64
2023/04/28 05:34:56;;;;;;;9.45;6.65;;;;;;;;;;5028866;28;20048;-64
2023/04/28 05:37:22;;;;;;;9.85;7.63;;;;;;;;;;5027860;28;20545;-64
2023/04/28 05:39:48;;;;;;;9.98;7.13;;;;;;;;;;5028225;28;20037;-64
2023/04/28 05:42:14;;;;;;;10.50;7.20;;;;;;;;;;5047264;28;20526;-64
2023/04/28 05:44:40;;;;;;;10.63;7.03;;;;;;;;;;5045826;28;20074;-64
2023/04/28 05:47:06;;;;;;;10.07;7.45;;;;;;;;;;5046546;28;20150;-64
2023/04/28 05:49:32;;;;;;;10.80;8.48;;;;;;;;;;5027903;28;20055;-64
2023/04/28 05:51:58;;;;;;;13.55;8.63;;;;;;;;;;5046419;28;20057;-64
2023/04/28 05:54:24;;;;;;;10.05;8.13;;;;;;;;;;5046409;28;20624;-64
2023/04/28 05:56:50;;;;;;;9.82;7.45;;;;;;;;;;5045575;28;20593;-64
2023/04/28 05:59:17;;;;;;;9.02;6.95;;;;;;;;;;5046327;28;20045;-64
2023/04/28 06:01:43;;;;;;;7.22;6.53;;;;;;;;;;5029137;28;20578;-64
2023/04/28 06:04:09;;;;;;;11.07;8.57;;;;;;;;;;5045312;28;20525;-64
2023/04/28 06:06:35;;;;;;;9.90;6.97;;;;;;;;;;5046023;28;20071;-66
2023/04/28 06:09:01;;;;;;;8.80;7.55;;;;;;;;;;5028385;28;20061;-66
2023/04/28 06:11:27;;;;;;;9.70;7.28;;;;;;;;;;5045106;28;20481;-66
2023/04/28 06:13:53;;;;;;;8.30;6.90;;;;;;;;;;5045921;28;20557;-65
2023/04/28 06:16:20;;;;;;;7.75;6.95;;;;;;;;;;5046099;28;20048;-65
2023/04/28 06:18:46;;;;;;;8.30;6.97;;;;;;;;;;5045582;28;20056;-64
2023/04/28 06:21:12;;;;;;;9.05;7.68;;;;;;;;;;5046316;28;20110;-65
2023/04/28 06:23:39;;;;;;;9.65;7.55;;;;;;;;;;5045854;28;20780;-64
2023/04/28 06:26:05;;;;;;;8.00;7.00;;;;;;;;;;5040019;28;20079;-65
2023/04/28 06:28:31;;;;;;;12.40;8.80;;;;;;;;;;5027758;28;20396;-65
2023/04/28 06:30:58;;;;;;;10.57;8.18;;;;;;;;;;5045733;28;20045;-65
2023/04/28 06:33:24;;;;;;;9.18;7.07;;;;;;;;;;5044590;28;20527;-65
2023/04/28 06:35:50;;;;;;;9.82;7.55;;;;;;;;;;5045290;28;20514;-65
2023/04/28 06:38:17;;;;;;;8.25;6.90;;;;;;;;;;5046029;28;20045;-65
2023/04/28 06:40:44;;;;;;;7.43;6.72;;;;;;;;;;5045432;28;20410;-65
2023/04/28 06:43:10;;;;;;;7.95;7.15;;;;;;;;;;5045458;28;20487;-65
2023/04/28 06:45:36;;;;;;;8.20;7.18;;;;;;;;;;5040834;28;20056;-65
2023/04/28 06:48:03;;;;;;;7.45;6.65;;;;;;;;;;5042700;28;20045;-64
2023/04/28 06:50:29;;;;;;;8.48;6.55;;;;;;;;;;5044778;28;20044;-65
2023/04/28 06:52:55;;;;;;;6.45;5.85;;;;;;;;;;5026440;28;20048;-65
2023/04/28 06:55:21;;;;;;;7.35;6.55;;;;;;;;;;5045127;28;20076;-65
2023/04/28 06:57:47;;;;;;;7.10;6.35;;;;;;;;;;5045175;28;20052;-65
2023/04/28 07:00:13;;;;;;;7.22;6.53;;;;;;;;;;5044092;28;20048;-65
2023/04/28 07:02:39;;;;;;;7.05;6.43;;;;;;;;;;5043849;28;20049;-65
2023/04/28 07:05:05;;;;;;;8.57;7.10;;;;;;;;;;5044452;28;20055;-65
2023/04/28 07:07:32;;;;;;;8.40;7.47;;;;;;;;;;5043575;28;20526;-65
2023/04/28 07:09:59;;;;;;;8.25;6.95;;;;;;;;;;5023367;28;20419;-65
2023/04/28 07:12:25;;;;;;;6.50;5.90;;;;;;;;;;5044779;28;20098;-63
2023/04/28 07:14:51;;;;;;;7.55;5.80;;;;;;;;;;5044002;28;20040;-65
2023/04/28 07:17:17;;;;;;;9.85;6.97;;;;;;;;;;5044915;28;20048;-64
2023/04/28 07:19:43;;;;;;;7.53;6.50;;;;;;;;;;5026904;28;20036;-67
2023/04/28 07:22:09;;;;;;;7.85;6.72;;;;;;;;;;5025860;28;20055;-67
2023/04/28 07:24:36;;;;;;;8.93;6.82;;;;;;;;;;5044406;28;20055;-67
2023/04/28 07:27:02;;;;;;;8.15;6.93;;;;;;;;;;5026792;28;20084;-67
2023/04/28 07:29:32;;;;;;;8.57;6.57;;;;;;;;;;5043624;28;20059;-66
2023/04/28 07:31:59;;;;;;;6.53;5.38;;;;;;;;;;5041800;28;20052;-68
2023/04/28 07:34:25;;;;;;;6.93;6.22;;;;;;;;;;5025027;28;20565;-69
2023/04/28 07:36:51;;;;;;;8.98;7.07;;;;;;;;;;5040283;28;20041;-68
2023/04/28 07:39:17;;;;;;;7.10;6.40;;;;;;;;;;5025843;28;20045;-68
2023/04/28 07:41:43;;;;;;;7.85;6.93;;;;;;;;;;5043255;28;20067;-68
2023/04/28 07:44:09;;;;;;;6.32;5.72;;;;;;;;;;5041874;28;20107;-69
2023/04/28 07:46:35;;;;;;;6.55;5.85;;;;;;;;;;5043101;28;20076;-67
2023/04/28 07:49:03;;;;;;;7.53;6.00;;;;;;;;;;5042915;28;20487;-67
2023/04/28 07:51:29;;;;;;;7.38;5.88;;;;;;;;;;5024463;28;20052;-67
2023/04/28 07:53:56;;;;;;;7.20;6.45;;;;;;;;;;5026239;28;20044;-67
2023/04/28 07:56:22;;;;;;;7.47;6.63;;;;;;;;;;5042609;28;20047;-64
2023/04/28 07:58:48;;;;;;;8.77;6.70;;;;;;;;;;5043799;28;20044;-64
2023/04/28 08:01:14;;;;;;;7.40;6.70;;;;;;;;;;5043836;28;20139;-64
2023/04/28 08:03:40;;;;;;;10.13;7.38;;;;;;;;;;5043103;28;20045;-66
2023/04/28 08:06:07;;;;;;;6.97;6.28;;;;;;;;;;5043377;28;20040;-66
2023/04/28 08:08:33;;;;;;;9.82;6.50;;;;;;;;;;5025557;28;20072;-66
2023/04/28 08:10:59;;;;;;;7.13;6.43;;;;;;;;;;5039850;28;20087;-66
2023/04/28 08:13:27;;;;;;;6.28;5.50;;;;;;;;;;5024473;28;20055;-66
2023/04/28 08:15:55;;;;;;;8.52;6.93;;;;;;;;;;5024412;28;20141;-66
2023/04/28 08:18:21;;;;;;;6.78;6.07;;;;;;;;;;5024294;28;20442;-66
2023/04/28 08:20:47;;;;;;;8.77;6.53;;;;;;;;;;5039758;28;20128;-65
2023/04/28 08:23:13;;;;;;;6.63;5.95;;;;;;;;;;5043514;28;20175;-65
2023/04/28 08:25:39;;;;;;;5.97;5.18;;;;;;;;;;5024764;28;20076;-65
2023/04/28 08:28:07;;;;;;;6.32;4.88;;;;;;;;;;5043229;28;20041;-65
2023/04/28 08:30:33;;;;;;;8.52;4.75;;;;;;;;;;5026485;28;20063;-66
2023/04/28 08:32:59;;;;;;;5.40;4.90;;;;;;;;;;5040821;28;20049;-66
2023/04/28 08:35:25;;;;;;;7.13;6.43;;;;;;;;;;5023879;28;20130;-66
2023/04/28 08:37:52;;;;;;;7.80;6.07;;;;;;;;;;5041628;28;20051;-65
2023/04/28 08:40:18;;;;;;;6.70;5.95;;;;;;;;;;5042433;28;20056;-67
2023/04/28 08:42:45;;;;;;;6.68;5.97;;;;;;;;;;5041500;28;20140;-67
2023/04/28 08:45:14;;;;;;;7.47;6.65;;;;;;;;;;5042670;28;20130;-67
2023/04/28 08:47:44;;;;;;;7.63;5.95;;;;;;;;;;5043358;28;20111;-67
2023/04/28 08:50:11;;;;;;;7.05;5.85;;;;;;;;;;5044204;28;20045;-67
2023/04/28 08:52:38;;;;;;;7.97;6.45;;;;;;;;;;5043491;28;20045;-67
2023/04/28 08:55:08;;;;;;;7.88;7.10;;;;;;;;;;5044172;28;20049;-67
2023/04/28 08:57:45;;;;;;;7.88;7.00;;;;;;;;;;5043932;28;20053;-67
2023/04/28 09:00:11;;;;;;;7.63;6.53;;;;;;;;;;5043883;28;20091;-68
2023/04/28 09:02:40;;;;;;;7.38;5.93;;;;;;;;;;5027855;28;20563;-67
2023/04/28 09:05:07;;;;;;;6.90;6.22;;;;;;;;;;5034878;28;20060;-68
2023/04/28 09:07:33;;;;;;;7.07;6.38;;;;;;;;;;5052503;28;20549;-68
2023/04/28 09:10:15;;;;;;;8.77;7.07;;;;;;;;;;5051070;28;20107;-68
2023/04/28 09:12:41;;;;;;;10.32;8.52;;;;;;;;;;5040204;28;20186;-68
2023/04/28 09:15:08;;;;;;;7.57;6.88;;;;;;;;;;5037906;28;20045;-68
2023/04/28 09:17:54;;;;;;;9.07;7.13;;;;;;;;;;5043042;28;20056;-68
2023/04/28 09:20:24;;;;;;;9.05;7.22;;;;;;;;;;5046918;28;20048;-67
2023/04/28 09:22:51;;;;;;;8.80;6.72;;;;;;;;;;5047692;28;20047;-68
2023/04/28 09:25:18;;;;;;;8.93;7.03;;;;;;;;;;5055468;28;20498;-68
2023/04/28 09:27:44;;;;;;;8.70;6.45;;;;;;;;;;5037550;28;20041;-66
2023/04/28 09:30:10;;;;;;;7.43;6.68;;;;;;;;;;5038475;28;20135;-66
2023/04/28 09:32:36;;;;;;;8.48;5.28;;;;;;;;;;5047360;28;20056;-66
2023/04/28 09:35:03;;;;;;;5.63;4.72;;;;;;;;;;5033474;28;20048;-66
2023/04/28 09:37:30;;;;;;;8.32;6.32;;;;;;;;;;5051424;28;20040;-66
2023/04/28 09:39:57;;;;;;;12.30;9.55;;;;;;;;;;5035807;28;20130;-66
2023/04/28 09:42:38;;;;;;;10.10;8.75;;;;;;;;;;5050478;28;20049;-67
2023/04/28 09:45:08;;;;;;;8.88;7.78;;;;;;;;;;5053609;28;20063;-66
2023/04/28 09:47:36;;;;;;;8.35;7.32;;;;;;;;;;5049165;28;20064;-67
2023/04/28 09:50:03;;;;;;;7.63;6.85;;;;;;;;;;5050602;28;20042;-66
2023/04/28 09:52:29;;;;;;;8.80;7.70;;;;;;;;;;5051277;28;20041;-66
2023/04/28 09:54:56;;;;;;;8.07;7.28;;;;;;;;;;5052608;28;20045;-66
2023/04/28 09:57:23;;;;;;;8.25;6.38;;;;;;;;;;5053548;28;20036;-66
2023/04/28 09:59:50;;;;;;;8.50;6.90;;;;;;;;;;5036201;28;20045;-67
2023/04/28 10:02:17;;;;;;;8.45;7.57;;;;;;;;;;5024658;28;20487;-66
2023/04/28 10:04:47;;;;;;;8.75;7.85;;;;;;;;;;5024469;28;20049;-66
2023/04/28 10:07:15;;;;;;;8.48;7.45;;;;;;;;;;5045316;28;20052;-67
2023/04/28 10:09:46;;;;;;;7.20;6.50;;;;;;;;;;5027555;28;20040;-65
2023/04/28 10:12:22;;;;;;;7.05;6.15;;;;;;;;;;5035282;28;20124;-66
2023/04/28 10:14:53;;;;;;;8.43;6.97;;;;;;;;;;5035581;28;20090;-64
2023/04/28 10:17:20;;;;;;;7.72;6.95;;;;;;;;;;5034000;28;20084;-67
2023/04/28 10:19:47;;;;;;;9.82;8.13;;;;;;;;;;5042294;28;20041;-67
2023/04/28 10:22:31;;;;;;;7.93;6.82;;;;;;;;;;5033393;28;20063;-66
2023/04/28 10:25:12;;;;;;;9.60;8.55;;;;;;;;;;5051717;28;20517;-67
2023/04/28 10:27:42;;;;;;;10.38;8.25;;;;;;;;;;5050903;28;20120;-67
2023/04/28 10:30:11;;;;;;;7.20;6.50;;;;;;;;;;5033759;28;20048;-67
2023/04/28 10:32:38;;;;;;;8.82;6.70;;;;;;;;;;5051935;28;20422;-66
2023/04/28 10:35:22;;;;;;;6.78;6.18;;;;;;;;;;5055090;28;20043;-67
2023/04/28 10:38:07;;;;;;;5.60;5.10;;;;;;;;;;5025587;28;20049;-66
2023/04/28 10:40:37;;;;;;;7.80;5.32;;;;;;;;;;5045646;28;20411;-65
2023/04/28 10:43:04;;;;;;;8.02;6.90;;;;;;;;;;5042801;28;20056;-66
2023/04/28 10:45:59;;;;;;;7.10;6.15;;;;;;;;;;5050864;28;20691;-66
2023/04/28 10:48:25;;;;;;;7.05;6.32;;;;;;;;;;5031790;28;20057;-66
2023/04/28 10:51:08;;;;;;;7.15;5.97;;;;;;;;;;5033660;28;20368;-66
2023/04/28 10:53:43;;;;;;;6.10;5.32;;;;;;;;;;5052986;28;20608;-66
2023/04/28 10:56:10;;;;;;;5.88;5.22;;;;;;;;;;5035900;28;20052;-66
2023/04/28 10:58:40;;;;;;;7.32;6.22;;;;;;;;;;5046567;28;20416;-67
2023/04/28 11:01:19;;;;;;;6.70;6.03;;;;;;;;;;5022665;28;20051;-67
2023/04/28 11:03:50;;;;;;;5.97;5.47;;;;;;;;;;5020707;28;20169;-67
2023/04/28 11:06:23;;;;;;;9.23;6.57;;;;;;;;;;5043396;28;20080;-67
2023/04/28 11:08:49;;;;;;;7.20;5.18;;;;;;;;;;5032099;28;20059;-66
2023/04/28 11:11:16;;;;;;;6.82;5.63;;;;;;;;;;5033778;28;20092;-67
2023/04/28 11:13:45;;;;;;;9.30;5.32;;;;;;;;;;5037630;28;20057;-66
2023/04/28 11:16:12;;;;;;;6.55;5.88;;;;;;;;;;5044824;28;20557;-66
2023/04/28 11:18:53;;;;;;;6.22;5.63;;;;;;;;;;5034904;28;20068;-66
2023/04/28 11:21:20;;;;;;;7.45;6.45;;;;;;;;;;5013356;28;20048;-68
2023/04/28 11:23:46;;;;;;;5.43;4.93;;;;;;;;;;5020926;28;20167;-65
2023/04/28 11:26:12;;;;;;;5.65;5.10;;;;;;;;;;5029755;28;20122;-66
2023/04/28 11:28:51;;;;;;;8.23;5.80;;;;;;;;;;5042049;28;20071;-65
2023/04/28 11:31:19;;;;;;;8.48;6.72;;;;;;;;;;5028546;28;20291;-65
2023/04/28 11:33:59;;;;;;;11.20;7.22;;;;;;;;;;5030110;28;20064;-66
2023/04/28 11:36:26;;;;;;;7.65;6.88;;;;;;;;;;5050261;28;20053;-65
2023/04/28 11:38:53;;;;;;;6.40;5.90;;;;;;;;;;5032599;28;20044;-65
2023/04/28 11:41:19;;;;;;;5.65;5.07;;;;;;;;;;5037544;28;20489;-65
2023/04/28 11:43:45;;;;;;;6.38;5.78;;;;;;;;;;5037536;28;20136;-66
2023/04/28 11:46:16;;;;;;;5.90;5.40;;;;;;;;;;5042747;28;20056;-65
2023/04/28 11:48:42;;;;;;;4.80;4.40;;;;;;;;;;5031630;28;20498;-65
2023/04/28 11:51:08;;;;;;;6.45;5.40;;;;;;;;;;5040440;28;20120;-65
2023/04/28 11:53:44;;;;;;;9.15;7.28;;;;;;;;;;5020661;28;20052;-65
2023/04/28 11:56:12;;;;;;;8.88;6.68;;;;;;;;;;5023590;28;20060;-65
2023/04/28 11:58:38;;;;;;;6.13;5.53;;;;;;;;;;5041621;28;20056;-65
2023/04/28 12:01:11;;;;;;;5.03;4.45;;;;;;;;;;5022445;28;20084;-65
2023/04/28 12:03:47;;;;;;;3.75;3.45;;;;;;;;;;5021462;28;20045;-65
2023/04/28 12:06:20;;;;;;;5.05;4.65;;;;;;;;;;5020113;28;20051;-65
2023/04/28 12:08:46;;;;;;;5.93;4.85;;;;;;;;;;5035932;28;20120;-65
2023/04/28 12:11:13;;;;;;;3.10;2.90;;;;;;;;;;5038351;28;20041;-65
2023/04/28 12:13:39;;;;;;;4.80;2.65;;;;;;;;;;5020364;28;20132;-65
2023/04/28 12:16:05;;;;;;;3.45;3.25;;;;;;;;;;5020202;28;20049;-65
2023/04/28 12:18:35;;;;;;;4.35;3.78;;;;;;;;;;5043404;28;20033;-65
2023/04/28 12:21:02;;;;;;;4.20;3.90;;;;;;;;;;5021147;28;20052;-67
2023/04/28 12:23:32;;;;;;;4.18;3.72;;;;;;;;;;5040494;28;20045;-66
2023/04/28 12:25:58;;;;;;;4.53;4.00;;;;;;;;;;5022705;28;20045;-65
2023/04/28 12:28:36;;;;;;;5.60;5.15;;;;;;;;;;5029816;28;20040;-65
2023/04/28 12:31:03;;;;;;;4.10;3.70;;;;;;;;;;5024500;28;20586;-65
2023/04/28 12:33:29;;;;;;;4.65;4.25;;;;;;;;;;5025884;28;20056;-65
2023/04/28 12:35:56;;;;;;;6.00;4.68;;;;;;;;;;5043398;28;20044;-65
2023/04/28 12:38:22;;;;;;;4.03;3.63;;;;;;;;;;5042155;28;20659;-65
2023/04/28 12:40:48;;;;;;;4.15;3.40;;;;;;;;;;5024833;28;20060;-65
2023/04/28 12:43:14;;;;;;;4.18;3.78;;;;;;;;;;5043590;28;20056;-66
2023/04/28 12:45:41;;;;;;;3.13;2.92;;;;;;;;;;5027382;28;20064;-76
2023/04/28 12:48:07;;;;;;;3.95;3.65;;;;;;;;;;5044546;28;20085;-66
2023/04/28 12:50:33;;;;;;;4.45;4.05;;;;;;;;;;5041865;28;20087;-67
2023/04/28 12:52:59;;;;;;;8.45;6.43;;;;;;;;;;5024598;28;20103;-65
2023/04/28 12:55:26;;;;;;;8.20;6.50;;;;;;;;;;5038463;28;20106;-65
2023/04/28 12:57:52;;;;;;;7.18;6.57;;;;;;;;;;5029599;28;20079;-66
2023/04/28 13:00:22;;;;;;;10.35;7.82;;;;;;;;;;5027610;28;20044;-65
2023/04/28 13:02:48;;;;;;;9.05;7.57;;;;;;;;;;5027368;28;20495;-66
2023/04/28 13:05:14;;;;;;;6.82;6.22;;;;;;;;;;5028135;28;20045;-66
2023/04/28 13:07:40;;;;;;;7.18;6.47;;;;;;;;;;5027048;28;20057;-65
2023/04/28 13:10:06;;;;;;;6.68;6.07;;;;;;;;;;5027743;28;20098;-65
2023/04/28 13:12:33;;;;;;;5.90;5.05;;;;;;;;;;5027110;28;20075;-65
2023/04/28 13:15:01;;;;;;;5.20;4.57;;;;;;;;;;5049391;28;20091;-66
2023/04/28 13:17:27;;;;;;;8.70;7.40;;;;;;;;;;5039590;28;20052;-65
2023/04/28 13:19:53;;;;;;;8.48;7.60;;;;;;;;;;5033964;28;20046;-65
2023/04/28 13:22:20;;;;;;;6.88;6.15;;;;;;;;;;5037343;28;20052;-65
2023/04/28 13:24:46;;;;;;;6.32;5.72;;;;;;;;;;5051390;28;20433;-65
2023/04/28 13:27:12;;;;;;;6.35;5.75;;;;;;;;;;5052363;28;20049;-65
2023/04/28 13:29:39;;;;;;;5.50;4.75;;;;;;;;;;5056376;28;20036;-66
2023/04/28 13:32:06;;;;;;;7.60;5.63;;;;;;;;;;5051998;28;20053;-65
2023/04/28 13:34:32;;;;;;;5.10;4.38;;;;;;;;;;5031433;28;20040;-65
2023/04/28 13:36:58;;;;;;;7.55;6.13;;;;;;;;;;5056171;28;20037;-65
2023/04/28 13:39:24;;;;;;;6.47;5.80;;;;;;;;;;5039256;28;20494;-65
2023/04/28 13:41:50;;;;;;;6.68;6.07;;;;;;;;;;5034884;28;20053;-65
2023/04/28 13:44:16;;;;;;;7.70;5.57;;;;;;;;;;5040385;28;20526;-65
2023/04/28 13:46:42;;;;;;;4.63;4.22;;;;;;;;;;5057124;28;20407;-65
2023/04/28 13:49:11;;;;;;;4.00;3.70;;;;;;;;;;5038747;28;20052;-65
2023/04/28 13:51:37;;;;;;;4.40;4.10;;;;;;;;;;5034635;28;20041;-65
2023/04/28 13:54:07;;;;;;;4.70;4.30;;;;;;;;;;5056139;28;20044;-65
2023/04/28 13:56:33;;;;;;;5.93;4.95;;;;;;;;;;5055264;28;20033;-65
2023/04/28 13:58:59;;;;;;;3.60;3.30;;;;;;;;;;5050776;28;20040;-65
2023/04/28 14:01:25;;;;;;;3.03;2.83;;;;;;;;;;5038962;28;20055;-65
2023/04/28 14:03:51;;;;;;;2.63;2.30;;;;;;;;;;5053545;28;20037;-65
2023/04/28 14:06:17;;;;;;;1.92;1.80;;;;;;;;;;5031827;28;20041;-65
2023/04/28 14:08:43;;;;;;;1.70;1.60;;;;;;;;;;5029820;28;20043;-65
2023/04/28 14:11:10;;;;;;;2.53;2.33;;;;;;;;;;5029884;28;20120;-65
2023/04/28 14:13:36;;;;;;;2.47;2.28;;;;;;;;;;5031240;28;20056;-67
2023/04/28 14:16:02;;;;;;;2.55;2.35;;;;;;;;;;5026085;28;20052;-65
2023/04/28 14:18:28;;;;;;;2.47;2.28;;;;;;;;;;5056904;28;20045;-65
2023/04/28 14:20:55;;;;;;;2.05;1.95;;;;;;;;;;5052770;28;20056;-65
2023/04/28 14:23:21;;;;;;;2.28;2.08;;;;;;;;;;5037772;28;20660;-65
2023/04/28 14:25:48;;;;;;;2.22;2.13;;;;;;;;;;5037693;28;20040;-65
2023/04/28 14:28:15;;;;;;;2.78;2.58;;;;;;;;;;5034931;28;20060;-65
2023/04/28 14:30:41;;;;;;;3.10;2.90;;;;;;;;;;5033757;28;20056;-65
2023/04/28 14:33:07;;;;;;;3.58;3.28;;;;;;;;;;5055977;28;20135;-65
2023/04/28 14:35:33;;;;;;;4.45;4.05;;;;;;;;;;5036333;28;20115;-65
2023/04/28 14:37:59;;;;;;;5.13;3.90;;;;;;;;;;5048911;28;20049;-65
2023/04/28 14:40:25;;;;;;;3.63;3.08;;;;;;;;;;5035899;28;20487;-65